createdAt,value
2023-05-31T00:01:32.687Z,3.08
2023-05-31T00:04:35.876Z,2.60
2023-05-31T00:07:38.804Z,2.80
2023-05-31T00:10:42.080Z,2.47
2023-05-31T00:13:45.278Z,2.75
2023-05-31T00:17:15.619Z,2.47
2023-05-31T00:20:11.665Z,2.83
2023-05-31T00:23:16.221Z,2.75
2023-05-31T00:26:19.221Z,2.35
2023-05-31T00:29:23.425Z,2.60
2023-05-31T00:32:26.371Z,2.80
2023-05-31T00:35:29.737Z,2.65
2023-05-31T00:38:32.717Z,2.78
2023-05-31T00:41:35.988Z,2.60
2023-05-31T00:44:39.175Z,2.80
2023-05-31T00:47:43.028Z,2.55
2023-05-31T00:50:46.082Z,3.45
2023-05-31T00:53:49.483Z,2.72
2023-05-31T00:56:53.253Z,2.33
2023-05-31T00:59:56.824Z,2.57
2023-05-31T01:03:03.851Z,2.10
2023-05-31T01:06:08.759Z,2.53
2023-05-31T01:09:11.788Z,2.50
2023-05-31T01:12:37.398Z,2.53
2023-05-31T01:15:48.168Z,2.47
2023-05-31T01:19:03.170Z,2.62
2023-05-31T01:22:18.367Z,2.42
2023-05-31T01:25:39.323Z,2.30
2023-05-31T01:28:43.292Z,2.53
2023-05-31T01:31:47.411Z,2.53
2023-05-31T01:34:51.864Z,3.15
2023-05-31T01:37:55.266Z,2.72
2023-05-31T01:40:59.678Z,3.08
2023-05-31T01:44:03.894Z,2.53
2023-05-31T01:47:10.499Z,3.47
2023-05-31T01:50:14.577Z,3.45
2023-05-31T01:53:17.702Z,2.45
2023-05-31T01:56:22.250Z,2.62
2023-05-31T01:59:26.705Z,2.90
2023-05-31T02:02:30.312Z,2.72
2023-05-31T02:05:33.650Z,2.12
2023-05-31T02:08:36.736Z,2.08
2023-05-31T02:11:39.965Z,2.08
2023-05-31T02:14:42.967Z,2.45
2023-05-31T02:17:52.244Z,2.45
2023-05-31T02:20:56.046Z,2.35
2023-05-31T02:23:59.469Z,2.12
2023-05-31T02:27:02.979Z,2.10
2023-05-31T02:30:08.183Z,2.00
2023-05-31T02:33:13.019Z,2.10
2023-05-31T02:36:16.163Z,2.47
2023-05-31T02:39:20.081Z,2.35
2023-05-31T02:45:27.584Z,1.98
2023-05-31T02:48:31.427Z,2.15
2023-05-31T02:51:34.438Z,2.10
2023-05-31T02:54:39.244Z,2.30
2023-05-31T02:57:44.635Z,2.45
2023-05-31T03:00:48.198Z,2.58
2023-05-31T03:03:51.410Z,2.22
2023-05-31T03:06:55.193Z,2.33
2023-05-31T03:09:58.525Z,1.80
2023-05-31T03:13:02.649Z,2.20
2023-05-31T03:16:06.145Z,2.08
2023-05-31T03:19:09.520Z,2.03
2023-05-31T03:22:12.504Z,1.73
2023-05-31T03:25:16.836Z,2.55
2023-05-31T03:28:19.636Z,2.03
2023-05-31T03:31:24.114Z,2.57
2023-05-31T03:34:27.165Z,2.10
2023-05-31T03:37:30.754Z,1.90
2023-05-31T03:40:33.974Z,2.00
2023-05-31T03:43:37.438Z,2.15
2023-05-31T03:46:41.218Z,1.87
2023-05-31T03:49:44.458Z,2.43
2023-05-31T03:52:47.570Z,2.20
2023-05-31T03:55:50.762Z,2.10
2023-05-31T03:58:53.797Z,2.20
2023-05-31T04:01:57.176Z,2.20
2023-05-31T04:08:06.236Z,1.98
2023-05-31T04:11:11.064Z,1.70
2023-05-31T04:14:14.324Z,2.13
2023-05-31T04:17:18.300Z,2.12
2023-05-31T04:20:21.229Z,1.75
2023-05-31T04:23:25.186Z,2.13
2023-05-31T04:26:30.240Z,2.20
2023-05-31T04:29:33.932Z,1.90
2023-05-31T04:32:37.912Z,1.62
2023-05-31T04:35:41.737Z,2.20
2023-05-31T04:38:45.619Z,2.08
2023-05-31T04:41:50.041Z,2.50
2023-05-31T04:44:59.158Z,1.87
2023-05-31T04:48:03.442Z,1.80
2023-05-31T04:51:07.050Z,1.98
2023-05-31T04:54:10.741Z,2.13
2023-05-31T04:57:14.219Z,2.12
2023-05-31T05:00:20.638Z,2.37
2023-05-31T05:03:24.724Z,2.05
2023-05-31T05:06:29.181Z,2.12
2023-05-31T05:09:32.341Z,1.80
2023-05-31T05:12:35.703Z,1.92
2023-05-31T05:15:38.735Z,1.77
2023-05-31T05:18:43.296Z,2.12
2023-05-31T05:24:51.642Z,1.70
2023-05-31T05:34:06.112Z,1.90
2023-05-31T05:37:09.573Z,1.90
2023-05-31T05:40:13.148Z,1.83
2023-05-31T05:43:16.817Z,1.83
2023-05-31T05:46:20.850Z,1.92
2023-05-31T05:49:24.173Z,1.90
2023-05-31T05:52:27.143Z,1.98
2023-05-31T05:55:31.410Z,2.00
2023-05-31T05:58:34.483Z,2.33
2023-05-31T06:01:42.032Z,2.35
2023-05-31T06:04:46.064Z,1.80
2023-05-31T06:07:49.192Z,2.40
2023-05-31T06:10:52.450Z,1.80
2023-05-31T06:13:57.648Z,1.77
2023-05-31T06:17:01.379Z,1.73
2023-05-31T06:20:10.108Z,1.98
2023-05-31T06:23:13.431Z,2.00
2023-05-31T06:26:16.819Z,1.90
2023-05-31T06:29:20.140Z,2.17
2023-05-31T06:32:27.671Z,1.80
2023-05-31T06:35:33.556Z,1.80
2023-05-31T06:38:40.284Z,2.42
2023-05-31T06:41:45.009Z,1.90
2023-05-31T06:44:56.923Z,2.03
2023-05-31T06:48:01.302Z,2.15
2023-05-31T06:51:07.661Z,2.47
2023-05-31T06:54:17.787Z,1.70
2023-05-31T06:57:21.776Z,1.92
2023-05-31T07:00:25.361Z,2.22
2023-05-31T07:03:28.374Z,1.83
2023-05-31T07:06:37.345Z,1.90
2023-05-31T07:09:40.485Z,2.00
2023-05-31T07:12:44.181Z,2.00
2023-05-31T07:15:47.164Z,2.20
2023-05-31T07:18:50.518Z,1.95
2023-05-31T07:21:54.288Z,1.80
2023-05-31T07:24:59.600Z,1.60
2023-05-31T07:28:02.554Z,2.00
2023-05-31T07:31:05.806Z,2.00
2023-05-31T07:34:10.633Z,2.00
2023-05-31T07:37:13.906Z,1.60
2023-05-31T07:40:17.200Z,1.90
2023-05-31T07:43:22.776Z,1.80
2023-05-31T07:46:25.977Z,1.70
2023-05-31T07:49:30.247Z,1.90
2023-05-31T07:52:34.667Z,1.85
2023-05-31T07:55:38.599Z,1.92
2023-05-31T07:58:41.608Z,2.07
2023-05-31T08:01:45.060Z,1.92
2023-05-31T08:04:48.312Z,1.73
2023-05-31T08:07:52.529Z,1.77
2023-05-31T08:10:56.885Z,1.85
2023-05-31T08:13:59.862Z,1.90
2023-05-31T08:20:08.271Z,2.03
2023-05-31T08:23:21.829Z,1.70
2023-05-31T08:26:26.895Z,1.48
2023-05-31T08:29:31.649Z,1.92
2023-05-31T08:35:38.049Z,1.50
2023-05-31T08:38:41.033Z,2.05
2023-05-31T08:42:07.248Z,1.90
2023-05-31T08:45:11.710Z,2.22
2023-05-31T08:48:32.137Z,2.10
2023-05-31T08:51:38.216Z,2.35
2023-05-31T08:54:43.470Z,2.17
2023-05-31T08:57:47.979Z,2.50
2023-05-31T09:00:51.415Z,1.83
2023-05-31T09:03:54.900Z,2.45
2023-05-31T09:06:58.231Z,1.98
2023-05-31T09:10:04.235Z,1.92
2023-05-31T09:13:08.018Z,2.30
2023-05-31T09:16:11.755Z,1.87
2023-05-31T09:19:14.996Z,1.85
2023-05-31T09:22:17.905Z,1.60
2023-05-31T09:25:21.292Z,1.92
2023-05-31T09:28:24.309Z,2.00
2023-05-31T09:31:28.702Z,2.10
2023-05-31T09:34:31.780Z,2.20
2023-05-31T09:37:34.943Z,2.33
2023-05-31T09:40:37.903Z,1.98
2023-05-31T09:43:46.396Z,2.12
2023-05-31T09:46:49.306Z,1.85
2023-05-31T09:49:57.079Z,1.98
2023-05-31T09:53:00.207Z,1.70
2023-05-31T09:56:09.914Z,2.28
2023-05-31T09:59:14.201Z,2.37
2023-05-31T10:02:17.478Z,2.00
2023-05-31T10:05:22.162Z,2.00
2023-05-31T10:08:26.413Z,1.80
2023-05-31T10:11:36.265Z,1.70
2023-05-31T10:14:42.702Z,2.37
2023-05-31T10:17:56.828Z,2.20
2023-05-31T10:21:14.503Z,2.30
2023-05-31T10:24:27.982Z,2.42
2023-05-31T10:27:38.666Z,2.12
2023-05-31T10:30:42.352Z,1.90
2023-05-31T10:33:50.281Z,2.20
2023-05-31T10:36:55.107Z,2.30
2023-05-31T10:40:19.089Z,2.00
2023-05-31T10:43:38.926Z,1.92
2023-05-31T10:46:42.722Z,2.20
2023-05-31T10:49:46.546Z,2.30
2023-05-31T10:52:51.510Z,2.37
2023-05-31T10:56:02.645Z,2.30
2023-05-31T10:59:11.587Z,1.92
2023-05-31T11:02:16.237Z,1.90
2023-05-31T11:05:23.573Z,2.15
2023-05-31T11:08:28.281Z,2.03
2023-05-31T11:11:34.229Z,2.30
2023-05-31T11:14:37.439Z,1.90
2023-05-31T11:17:43.914Z,2.40
2023-05-31T11:20:47.462Z,2.20
2023-05-31T11:23:55.807Z,2.12
2023-05-31T11:27:00.804Z,2.08
2023-05-31T11:30:07.831Z,2.10
2023-05-31T11:33:20.174Z,2.05
2023-05-31T11:36:24.244Z,2.12
2023-05-31T11:39:27.658Z,2.15
2023-05-31T11:42:36.280Z,2.27
2023-05-31T11:45:42.183Z,2.00
2023-05-31T11:48:47.230Z,2.03
2023-05-31T11:51:50.675Z,1.77
2023-05-31T11:54:56.112Z,1.97
2023-05-31T11:58:00.298Z,2.28
2023-05-31T12:04:07.643Z,2.40
2023-05-31T12:07:11.362Z,2.00
2023-05-31T12:10:14.852Z,1.98
2023-05-31T12:13:18.926Z,2.08
2023-05-31T12:16:23.486Z,1.95
2023-05-31T12:19:26.444Z,2.22
2023-05-31T12:22:30.892Z,2.08
2023-05-31T12:25:33.490Z,1.87
2023-05-31T12:28:36.470Z,1.92
2023-05-31T12:31:43.848Z,2.37
2023-05-31T12:34:54.764Z,2.12
2023-05-31T12:37:58.838Z,2.20
2023-05-31T12:41:03.147Z,2.05
2023-05-31T12:44:07.824Z,2.40
2023-05-31T12:47:11.159Z,1.80
2023-05-31T12:50:14.084Z,2.00
2023-05-31T12:53:17.688Z,2.08
2023-05-31T12:56:21.227Z,2.40
2023-05-31T12:59:26.168Z,2.08
2023-05-31T13:02:29.381Z,1.95
2023-05-31T13:05:32.874Z,2.37
2023-05-31T13:08:35.896Z,1.98
2023-05-31T13:11:39.658Z,2.15
2023-05-31T13:14:43.772Z,2.22
2023-05-31T13:17:47.111Z,2.10
2023-05-31T13:20:51.108Z,2.15
2023-05-31T13:23:56.172Z,2.35
2023-05-31T13:26:59.221Z,2.25
2023-05-31T13:30:04.051Z,2.08
2023-05-31T13:36:10.471Z,2.27
2023-05-31T13:39:15.810Z,1.80
2023-05-31T13:42:19.190Z,2.30
2023-05-31T13:48:25.277Z,2.03
2023-05-31T13:51:28.220Z,2.22
2023-05-31T13:57:34.560Z,2.30
2023-05-31T14:00:42.838Z,2.30
2023-05-31T14:03:49.182Z,2.50
2023-05-31T14:06:52.292Z,2.40
2023-05-31T14:09:55.787Z,1.95
2023-05-31T14:12:58.749Z,2.40
2023-05-31T14:16:02.271Z,2.30
2023-05-31T14:19:06.679Z,2.33
2023-05-31T14:22:10.051Z,2.45
2023-05-31T14:25:13.860Z,2.22
2023-05-31T14:28:17.426Z,2.62
2023-05-31T14:31:20.549Z,2.00
2023-05-31T14:34:24.678Z,2.25
2023-05-31T14:37:40.716Z,2.45
2023-05-31T14:40:52.704Z,2.40
2023-05-31T14:43:55.655Z,2.30
2023-05-31T14:46:58.873Z,2.10
2023-05-31T14:50:04.894Z,2.15
2023-05-31T14:53:12.972Z,2.37
2023-05-31T14:56:18.545Z,2.33
2023-05-31T14:59:24.266Z,2.20
2023-05-31T15:02:27.397Z,2.20
2023-05-31T15:05:31.709Z,2.80
2023-05-31T15:08:36.583Z,2.62
2023-05-31T15:11:39.982Z,2.50
2023-05-31T15:14:43.848Z,2.50
2023-05-31T15:17:47.730Z,2.45
2023-05-31T15:20:51.088Z,2.33
2023-05-31T15:23:54.627Z,2.40
2023-05-31T15:26:57.691Z,2.08
2023-05-31T15:30:01.028Z,2.62
2023-05-31T15:33:04.724Z,2.78
2023-05-31T15:36:09.496Z,2.75
2023-05-31T15:39:12.982Z,2.78
2023-05-31T15:42:16.179Z,2.67
2023-05-31T15:48:22.563Z,2.47
2023-05-31T15:54:28.629Z,2.63
2023-05-31T15:57:31.740Z,2.37
2023-05-31T16:00:34.982Z,2.25
2023-05-31T16:06:41.193Z,2.37
2023-05-31T16:09:44.811Z,2.42
2023-05-31T16:12:47.729Z,2.70
2023-05-31T16:15:51.284Z,2.25
2023-05-31T16:18:56.098Z,3.00
2023-05-31T16:21:59.315Z,2.80
2023-05-31T16:25:02.533Z,2.47
2023-05-31T16:28:05.858Z,2.25
2023-05-31T16:31:14.139Z,2.40
2023-05-31T16:34:18.308Z,2.70
2023-05-31T16:37:22.511Z,2.83
2023-05-31T16:40:25.674Z,2.75
2023-05-31T16:43:29.856Z,2.85
2023-05-31T16:46:33.194Z,2.30
2023-05-31T16:49:45.726Z,2.24
2023-05-31T16:52:52.917Z,2.15
2023-05-31T16:55:56.249Z,2.83
2023-05-31T16:58:59.523Z,2.47
2023-05-31T17:02:03.631Z,2.65
2023-05-31T17:05:10.000Z,2.67
2023-05-31T17:08:14.344Z,2.65
2023-05-31T17:11:17.769Z,2.50
2023-05-31T17:14:21.469Z,2.42
2023-05-31T17:17:24.831Z,2.85
2023-05-31T17:20:28.013Z,2.65
2023-05-31T17:23:31.428Z,2.22
2023-05-31T17:29:38.044Z,3.05
2023-05-31T17:32:41.499Z,2.70
2023-05-31T17:35:45.284Z,2.90
2023-05-31T17:38:48.180Z,2.20
2023-05-31T17:41:51.509Z,2.78
2023-05-31T17:44:54.435Z,2.97
2023-05-31T17:47:57.784Z,2.67
2023-05-31T17:51:01.017Z,2.30
2023-05-31T17:54:05.054Z,2.47
2023-05-31T17:57:08.542Z,2.62
2023-05-31T18:03:15.208Z,2.83
2023-05-31T18:06:18.210Z,2.53
2023-05-31T18:09:21.453Z,2.30
2023-05-31T18:12:24.405Z,2.67
2023-05-31T18:15:27.964Z,2.55
2023-05-31T18:18:31.126Z,2.40
2023-05-31T18:21:34.436Z,2.47
2023-05-31T18:24:37.397Z,2.17
2023-05-31T18:27:40.903Z,2.47
2023-05-31T18:30:43.888Z,2.80
2023-05-31T18:33:47.165Z,2.87
2023-05-31T18:36:50.140Z,3.20
2023-05-31T18:39:54.356Z,2.35
2023-05-31T18:42:57.267Z,2.53
2023-05-31T18:46:00.719Z,2.70
2023-05-31T18:49:03.806Z,2.60
2023-05-31T18:52:07.170Z,2.37
2023-05-31T18:55:10.146Z,2.80
2023-05-31T18:58:13.330Z,2.40
2023-05-31T19:01:17.076Z,2.33
2023-05-31T19:04:20.335Z,2.70
2023-05-31T19:07:23.514Z,2.65
2023-05-31T19:10:27.024Z,2.35
2023-05-31T19:13:30.173Z,2.85
2023-05-31T19:16:34.285Z,2.72
2023-05-31T19:19:37.593Z,2.55
2023-05-31T19:22:52.884Z,2.78
2023-05-31T19:25:56.139Z,2.45
2023-05-31T19:28:59.664Z,2.75
2023-05-31T19:32:02.626Z,2.45
2023-05-31T19:35:07.734Z,2.80
2023-05-31T19:38:11.259Z,2.35
2023-05-31T19:41:14.997Z,3.17
2023-05-31T19:44:17.941Z,2.70
2023-05-31T19:47:23.406Z,2.60
2023-05-31T19:50:27.845Z,2.78
2023-05-31T19:53:31.143Z,2.80
2023-05-31T19:56:34.323Z,2.65
2023-05-31T19:59:37.523Z,2.97
2023-05-31T20:02:40.550Z,2.50
2023-05-31T20:05:43.896Z,2.75
2023-05-31T20:08:46.875Z,3.20
2023-05-31T20:11:50.117Z,3.37
2023-05-31T20:14:53.156Z,2.67
2023-05-31T20:17:56.664Z,2.72
2023-05-31T20:20:59.614Z,2.92
2023-05-31T20:24:03.441Z,2.62
2023-05-31T20:27:08.333Z,2.60
2023-05-31T20:30:12.281Z,2.47
2023-05-31T20:33:15.582Z,2.75
2023-05-31T20:36:18.920Z,3.00
2023-05-31T20:39:22.329Z,2.55
2023-05-31T20:42:26.208Z,2.85
2023-05-31T20:45:29.158Z,2.47
2023-05-31T20:48:32.689Z,2.35
2023-05-31T20:51:35.773Z,2.42
2023-05-31T20:54:39.066Z,2.85
2023-05-31T20:57:42.496Z,2.40
2023-05-31T21:00:46.314Z,2.70
2023-05-31T21:03:49.464Z,2.53
2023-05-31T21:06:52.846Z,2.60
2023-05-31T21:09:56.767Z,3.30
2023-05-31T21:12:59.896Z,2.80
2023-05-31T21:16:03.819Z,3.15
2023-05-31T21:19:07.279Z,3.15
2023-05-31T21:22:10.260Z,2.83
2023-05-31T21:25:13.479Z,3.03
2023-05-31T21:28:17.861Z,3.28
2023-05-31T21:31:24.026Z,2.92
2023-05-31T21:34:26.959Z,2.60
2023-05-31T21:37:30.110Z,3.35
2023-05-31T21:40:33.046Z,2.85
2023-05-31T21:43:36.350Z,2.75
2023-05-31T21:46:39.351Z,2.78
2023-05-31T21:49:42.705Z,3.03
2023-05-31T21:52:45.657Z,3.12
2023-05-31T21:55:50.480Z,3.17
2023-05-31T21:58:53.475Z,3.28
2023-05-31T22:01:57.310Z,3.37
2023-05-31T22:05:00.533Z,3.25
2023-05-31T22:08:03.521Z,3.20
2023-05-31T22:11:06.875Z,3.78
2023-05-31T22:14:09.831Z,3.35
2023-05-31T22:17:14.849Z,3.45
2023-05-31T22:23:24.712Z,2.90
2023-05-31T22:26:28.343Z,2.75
2023-05-31T22:29:31.599Z,2.87
2023-05-31T22:32:34.568Z,2.60
2023-05-31T22:35:39.137Z,3.20
2023-05-31T22:38:42.463Z,2.67
2023-05-31T22:41:45.703Z,2.58
2023-05-31T22:44:49.505Z,3.08
2023-05-31T22:47:53.295Z,2.70
2023-05-31T22:51:00.444Z,2.97
2023-05-31T22:54:03.840Z,2.62
2023-05-31T22:57:08.314Z,2.42
2023-05-31T23:00:13.165Z,2.95
2023-05-31T23:03:16.380Z,2.97
2023-05-31T23:06:21.211Z,3.25
2023-05-31T23:09:24.866Z,2.90
2023-05-31T23:12:31.901Z,3.30
2023-05-31T23:15:37.324Z,2.58
2023-05-31T23:18:41.892Z,2.40
2023-05-31T23:21:46.698Z,3.00
2023-05-31T23:24:50.044Z,2.70
2023-05-31T23:27:53.440Z,2.97
2023-05-31T23:30:56.701Z,2.55
2023-05-31T23:33:59.679Z,2.53
2023-05-31T23:37:02.963Z,2.47
2023-05-31T23:40:06.550Z,2.60
2023-05-31T23:43:09.772Z,2.78
2023-05-31T23:46:13.083Z,2.33
2023-05-31T23:49:16.926Z,2.30
2023-05-31T23:52:21.782Z,2.05
2023-05-31T23:58:29.014Z,1.90
